Strona główna
METAR-TAF:

METAR-TAF

Lotnisko :

Port lotniczy Damaszek

Damaszek, Syria

Szerokość geograficzna: 33-25N, Długość geograficzna: 036-31E, wysokość: 608 m

Aktualna obserwacja pogody

Raport powstał 7 minut temu, godzina 12:00 UTC
Wiatr 4 kt od wschód
Temperatura 14°C
Wilgotność 51%
Ciśnienie 1022 hPa
Widzialność 10 km lub więcej
Rozproszone chmury na wysokości 3000 ft

METAR: OSDI 161200Z 10004KT 9999 SCT030 14/04 Q1022

czas: 14:07 (12:07 UTC)

Prognoza

Raport powstał 8 godziny i 7 minut temu, godzina 04:00 UTC
Prognoza ważna od 16 godzina 06 UTC do 17 godzina 12 UTC
Wiatr 3 kt z kierunków zmiennych
Widzialność: 8000 m
Mało chmury na wysokości 3000 ft
Przejściowo
od 16 godzina 09 UTC do 16 godzina 18 UTC
Wiatr 10 kt od wschodnio-północny wschód
Widzialność 10 km lub więcej
Mało chmury na wysokości 3000 ft
Rozproszone chmury na wysokości 10000 ft

TAF: OSDI 160400Z 1606/1712 VRB03KT 8000 FEW030 TEMPO 1609/1618 06010KT 9999 FEW030 SCT100

Obserwacja i prognoza pogody dla ponad 4000 lotnisk (raport METAR i TAF).

Dostępne stacje oznaczono żółtymi i czerwonymi punktami na mapie.

Najedź kursorem aby zobaczyć nazwę stacji.

Kliknij aby zobaczyć obserwacje i prognozy pogody.

Aby zmienić mapę: kliknij na zielony przycisk z czarnym krzyżykiem, aby powiększyć; na zielony przycisk z myślnikiem, aby pomniejszyć; na zielone strzałki, aby przejść do map sąsiednich.


METAR-TAF: